sensor_id;sensor_type;location;lat;lon;timestamp;P1;durP1;ratioP1;P2;durP2;ratioP2
2558;SDS011;1289;53.488;10.006;2023-02-15T00:01:31;102.43;;;41.50;;
2558;SDS011;1289;53.488;10.006;2023-02-15T00:04:00;145.90;;;43.53;;
2558;SDS011;1289;53.488;10.006;2023-02-15T00:06:26;117.83;;;43.90;;
2558;SDS011;1289;53.488;10.006;2023-02-15T00:08:53;172.10;;;47.53;;
2558;SDS011;1289;53.488;10.006;2023-02-15T00:11:20;158.00;;;45.90;;
2558;SDS011;1289;53.488;10.006;2023-02-15T00:14:04;144.87;;;43.87;;
2558;SDS011;1289;53.488;10.006;2023-02-15T00:16:32;141.70;;;41.77;;
2558;SDS011;1289;53.488;10.006;2023-02-15T00:19:00;158.27;;;49.10;;
2558;SDS011;1289;53.488;10.006;2023-02-15T00:21:27;189.57;;;50.90;;
2558;SDS011;1289;53.488;10.006;2023-02-15T00:23:54;123.33;;;44.20;;
2558;SDS011;1289;53.488;10.006;2023-02-15T00:26:21;210.03;;;52.87;;
2558;SDS011;1289;53.488;10.006;2023-02-15T00:28:48;273.23;;;57.80;;
2558;SDS011;1289;53.488;10.006;2023-02-15T00:31:14;252.43;;;62.10;;
2558;SDS011;1289;53.488;10.006;2023-02-15T00:33:41;162.43;;;46.43;;
2558;SDS011;1289;53.488;10.006;2023-02-15T00:36:11;148.40;;;45.80;;
2558;SDS011;1289;53.488;10.006;2023-02-15T00:38:38;129.33;;;45.50;;
2558;SDS011;1289;53.488;10.006;2023-02-15T00:41:06;127.80;;;43.90;;
2558;SDS011;1289;53.488;10.006;2023-02-15T00:43:33;208.10;;;53.20;;
2558;SDS011;1289;53.488;10.006;2023-02-15T00:46:00;175.27;;;44.57;;
2558;SDS011;1289;53.488;10.006;2023-02-15T00:48:27;124.77;;;43.63;;
2558;SDS011;1289;53.488;10.006;2023-02-15T00:50:55;150.97;;;44.90;;
2558;SDS011;1289;53.488;10.006;2023-02-15T00:53:24;173.10;;;48.17;;
2558;SDS011;1289;53.488;10.006;2023-02-15T00:55:52;169.27;;;46.00;;
2558;SDS011;1289;53.488;10.006;2023-02-15T00:58:19;138.60;;;45.97;;
2558;SDS011;1289;53.488;10.006;2023-02-15T01:00:46;187.23;;;49.90;;
2558;SDS011;1289;53.488;10.006;2023-02-15T01:03:14;216.40;;;53.67;;
2558;SDS011;1289;53.488;10.006;2023-02-15T01:05:41;109.40;;;40.80;;
2558;SDS011;1289;53.488;10.006;2023-02-15T01:08:08;119.13;;;43.50;;
2558;SDS011;1289;53.488;10.006;2023-02-15T01:10:38;148.07;;;48.90;;
2558;SDS011;1289;53.488;10.006;2023-02-15T01:13:05;148.03;;;47.20;;
2558;SDS011;1289;53.488;10.006;2023-02-15T01:15:33;159.80;;;46.83;;
2558;SDS011;1289;53.488;10.006;2023-02-15T01:18:00;124.43;;;44.13;;
2558;SDS011;1289;53.488;10.006;2023-02-15T01:20:27;211.50;;;53.47;;
2558;SDS011;1289;53.488;10.006;2023-02-15T01:22:56;108.97;;;43.73;;
2558;SDS011;1289;53.488;10.006;2023-02-15T01:25:23;148.80;;;43.40;;
2558;SDS011;1289;53.488;10.006;2023-02-15T01:27:52;141.50;;;43.00;;
2558;SDS011;1289;53.488;10.006;2023-02-15T01:30:18;142.10;;;45.43;;
2558;SDS011;1289;53.488;10.006;2023-02-15T01:32:46;147.23;;;44.43;;
2558;SDS011;1289;53.488;10.006;2023-02-15T01:35:13;113.40;;;42.93;;
2558;SDS011;1289;53.488;10.006;2023-02-15T01:37:39;122.87;;;43.23;;
2558;SDS011;1289;53.488;10.006;2023-02-15T01:40:07;156.07;;;47.30;;
2558;SDS011;1289;53.488;10.006;2023-02-15T01:42:35;120.70;;;41.03;;
2558;SDS011;1289;53.488;10.006;2023-02-15T01:45:04;110.07;;;41.27;;
2558;SDS011;1289;53.488;10.006;2023-02-15T01:47:33;139.33;;;44.87;;
2558;SDS011;1289;53.488;10.006;2023-02-15T01:50:05;144.53;;;46.07;;
2558;SDS011;1289;53.488;10.006;2023-02-15T01:52:35;192.27;;;51.20;;
2558;SDS011;1289;53.488;10.006;2023-02-15T01:55:10;190.73;;;48.30;;
2558;SDS011;1289;53.488;10.006;2023-02-15T01:57:37;138.63;;;42.83;;
2558;SDS011;1289;53.488;10.006;2023-02-15T02:00:07;134.27;;;43.67;;
2558;SDS011;1289;53.488;10.006;2023-02-15T02:02:38;179.47;;;54.53;;
2558;SDS011;1289;53.488;10.006;2023-02-15T02:05:05;168.23;;;48.33;;
2558;SDS011;1289;53.488;10.006;2023-02-15T02:07:34;190.87;;;48.27;;
2558;SDS011;1289;53.488;10.006;2023-02-15T02:10:02;159.10;;;48.43;;
2558;SDS011;1289;53.488;10.006;2023-02-15T02:12:32;298.67;;;51.63;;
2558;SDS011;1289;53.488;10.006;2023-02-15T02:14:59;182.90;;;51.67;;
2558;SDS011;1289;53.488;10.006;2023-02-15T02:17:30;183.07;;;45.53;;
2558;SDS011;1289;53.488;10.006;2023-02-15T02:35:05;141.57;;;44.90;;
2558;SDS011;1289;53.488;10.006;2023-02-15T02:37:37;113.20;;;41.50;;
2558;SDS011;1289;53.488;10.006;2023-02-15T02:40:11;156.17;;;44.30;;
2558;SDS011;1289;53.488;10.006;2023-02-15T02:42:40;105.40;;;41.07;;
2558;SDS011;1289;53.488;10.006;2023-02-15T02:45:09;173.73;;;45.53;;
2558;SDS011;1289;53.488;10.006;2023-02-15T02:47:43;143.90;;;44.60;;
2558;SDS011;1289;53.488;10.006;2023-02-15T02:50:14;116.37;;;41.10;;
2558;SDS011;1289;53.488;10.006;2023-02-15T02:52:42;161.37;;;47.77;;
2558;SDS011;1289;53.488;10.006;2023-02-15T02:55:11;123.83;;;42.40;;
2558;SDS011;1289;53.488;10.006;2023-02-15T02:57:45;152.13;;;43.73;;
2558;SDS011;1289;53.488;10.006;2023-02-15T03:00:15;129.20;;;43.20;;
2558;SDS011;1289;53.488;10.006;2023-02-15T03:02:44;91.70;;;41.20;;
2558;SDS011;1289;53.488;10.006;2023-02-15T03:05:11;121.50;;;44.27;;
2558;SDS011;1289;53.488;10.006;2023-02-15T03:07:42;142.87;;;42.97;;
2558;SDS011;1289;53.488;10.006;2023-02-15T03:10:10;87.63;;;39.63;;
2558;SDS011;1289;53.488;10.006;2023-02-15T03:12:37;150.63;;;44.23;;
2558;SDS011;1289;53.488;10.006;2023-02-15T03:15:07;126.73;;;43.30;;
2558;SDS011;1289;53.488;10.006;2023-02-15T03:17:37;204.00;;;49.13;;
2558;SDS011;1289;53.488;10.006;2023-02-15T03:20:07;116.30;;;41.17;;
2558;SDS011;1289;53.488;10.006;2023-02-15T03:22:38;100.03;;;38.83;;
2558;SDS011;1289;53.488;10.006;2023-02-15T03:25:10;156.83;;;43.93;;
2558;SDS011;1289;53.488;10.006;2023-02-15T03:27:42;110.43;;;42.87;;
2558;SDS011;1289;53.488;10.006;2023-02-15T03:30:11;116.27;;;42.40;;
2558;SDS011;1289;53.488;10.006;2023-02-15T03:32:39;94.37;;;39.43;;
2558;SDS011;1289;53.488;10.006;2023-02-15T03:35:07;85.90;;;38.77;;
2558;SDS011;1289;53.488;10.006;2023-02-15T03:37:35;130.53;;;39.77;;
2558;SDS011;1289;53.488;10.006;2023-02-15T03:40:06;101.93;;;38.20;;
2558;SDS011;1289;53.488;10.006;2023-02-15T03:42:51;96.90;;;39.87;;
2558;SDS011;1289;53.488;10.006;2023-02-15T03:45:24;83.27;;;34.93;;
2558;SDS011;1289;53.488;10.006;2023-02-15T03:47:52;93.30;;;37.70;;
2558;SDS011;1289;53.488;10.006;2023-02-15T03:50:21;158.17;;;44.40;;
2558;SDS011;1289;53.488;10.006;2023-02-15T03:53:06;82.83;;;35.73;;
2558;SDS011;1289;53.488;10.006;2023-02-15T03:55:35;79.80;;;37.30;;
2558;SDS011;1289;53.488;10.006;2023-02-15T03:58:03;147.50;;;41.23;;
2558;SDS011;1289;53.488;10.006;2023-02-15T04:00:48;90.17;;;34.63;;
2558;SDS011;1289;53.488;10.006;2023-02-15T04:03:35;102.33;;;39.80;;
2558;SDS011;1289;53.488;10.006;2023-02-15T04:06:06;83.03;;;36.67;;
2558;SDS011;1289;53.488;10.006;2023-02-15T04:08:34;172.00;;;44.63;;
2558;SDS011;1289;53.488;10.006;2023-02-15T04:11:18;128.53;;;37.33;;
2558;SDS011;1289;53.488;10.006;2023-02-15T04:13:44;137.83;;;42.63;;
2558;SDS011;1289;53.488;10.006;2023-02-15T04:16:11;111.17;;;39.30;;
2558;SDS011;1289;53.488;10.006;2023-02-15T04:18:39;102.60;;;39.30;;
2558;SDS011;1289;53.488;10.006;2023-02-15T04:21:25;97.23;;;38.03;;
2558;SDS011;1289;53.488;10.006;2023-02-15T04:24:12;183.67;;;43.20;;
2558;SDS011;1289;53.488;10.006;2023-02-15T04:26:57;98.93;;;38.37;;
2558;SDS011;1289;53.488;10.006;2023-02-15T04:29:24;79.83;;;36.73;;
2558;SDS011;1289;53.488;10.006;2023-02-15T04:31:52;134.30;;;38.67;;
2558;SDS011;1289;53.488;10.006;2023-02-15T04:34:19;92.97;;;36.20;;
2558;SDS011;1289;53.488;10.006;2023-02-15T04:36:46;163.00;;;41.03;;
2558;SDS011;1289;53.488;10.006;2023-02-15T04:39:14;152.17;;;42.23;;
2558;SDS011;1289;53.488;10.006;2023-02-15T04:41:41;127.13;;;39.13;;
2558;SDS011;1289;53.488;10.006;2023-02-15T04:44:08;126.00;;;38.70;;
2558;SDS011;1289;53.488;10.006;2023-02-15T04:46:35;158.53;;;41.87;;
2558;SDS011;1289;53.488;10.006;2023-02-15T04:49:01;107.70;;;36.37;;
2558;SDS011;1289;53.488;10.006;2023-02-15T04:51:28;103.47;;;36.10;;
2558;SDS011;1289;53.488;10.006;2023-02-15T04:53:55;100.20;;;36.10;;
2558;SDS011;1289;53.488;10.006;2023-02-15T04:56:23;133.53;;;37.47;;
2558;SDS011;1289;53.488;10.006;2023-02-15T04:58:49;110.80;;;35.30;;
2558;SDS011;1289;53.488;10.006;2023-02-15T05:01:16;158.07;;;37.53;;
2558;SDS011;1289;53.488;10.006;2023-02-15T05:03:43;106.30;;;37.63;;
2558;SDS011;1289;53.488;10.006;2023-02-15T05:06:35;235.47;;;47.00;;
2558;SDS011;1289;53.488;10.006;2023-02-15T05:09:01;135.67;;;38.87;;
2558;SDS011;1289;53.488;10.006;2023-02-15T05:11:29;146.27;;;37.90;;
2558;SDS011;1289;53.488;10.006;2023-02-15T05:13:56;130.93;;;39.03;;
2558;SDS011;1289;53.488;10.006;2023-02-15T05:16:23;126.43;;;38.27;;
2558;SDS011;1289;53.488;10.006;2023-02-15T05:18:50;114.60;;;33.57;;
2558;SDS011;1289;53.488;10.006;2023-02-15T05:21:17;98.50;;;36.03;;
2558;SDS011;1289;53.488;10.006;2023-02-15T05:23:43;134.93;;;37.30;;
2558;SDS011;1289;53.488;10.006;2023-02-15T05:26:10;153.10;;;39.10;;
2558;SDS011;1289;53.488;10.006;2023-02-15T05:28:56;68.00;;;33.00;;
2558;SDS011;1289;53.488;10.006;2023-02-15T05:31:23;127.63;;;36.60;;
2558;SDS011;1289;53.488;10.006;2023-02-15T05:33:50;85.10;;;32.30;;
2558;SDS011;1289;53.488;10.006;2023-02-15T05:36:16;220.23;;;45.07;;
2558;SDS011;1289;53.488;10.006;2023-02-15T05:38:43;74.93;;;35.37;;
2558;SDS011;1289;53.488;10.006;2023-02-15T05:41:10;73.17;;;33.20;;
2558;SDS011;1289;53.488;10.006;2023-02-15T05:43:37;88.77;;;35.40;;
2558;SDS011;1289;53.488;10.006;2023-02-15T05:46:05;94.47;;;32.70;;
2558;SDS011;1289;53.488;10.006;2023-02-15T05:48:32;124.37;;;34.73;;
2558;SDS011;1289;53.488;10.006;2023-02-15T05:51:00;200.90;;;42.57;;
2558;SDS011;1289;53.488;10.006;2023-02-15T05:53:29;153.23;;;35.23;;
2558;SDS011;1289;53.488;10.006;2023-02-15T05:55:56;128.07;;;33.07;;
2558;SDS011;1289;53.488;10.006;2023-02-15T05:58:25;147.60;;;39.50;;
2558;SDS011;1289;53.488;10.006;2023-02-15T06:00:52;60.60;;;29.73;;
2558;SDS011;1289;53.488;10.006;2023-02-15T06:03:20;98.93;;;29.60;;
2558;SDS011;1289;53.488;10.006;2023-02-15T06:05:47;153.93;;;39.60;;
2558;SDS011;1289;53.488;10.006;2023-02-15T06:08:13;147.73;;;36.70;;
2558;SDS011;1289;53.488;10.006;2023-02-15T06:10:40;108.37;;;34.47;;
2558;SDS011;1289;53.488;10.006;2023-02-15T06:13:07;226.23;;;43.90;;
2558;SDS011;1289;53.488;10.006;2023-02-15T06:15:33;95.70;;;30.73;;
2558;SDS011;1289;53.488;10.006;2023-02-15T06:18:00;220.10;;;41.27;;
2558;SDS011;1289;53.488;10.006;2023-02-15T06:20:28;138.13;;;36.27;;
2558;SDS011;1289;53.488;10.006;2023-02-15T06:22:55;181.73;;;41.03;;
2558;SDS011;1289;53.488;10.006;2023-02-15T06:25:21;150.97;;;41.60;;
2558;SDS011;1289;53.488;10.006;2023-02-15T06:27:49;168.80;;;43.00;;
2558;SDS011;1289;53.488;10.006;2023-02-15T06:30:16;179.57;;;39.13;;
2558;SDS011;1289;53.488;10.006;2023-02-15T06:32:43;140.47;;;37.50;;
2558;SDS011;1289;53.488;10.006;2023-02-15T06:35:09;141.60;;;37.37;;
2558;SDS011;1289;53.488;10.006;2023-02-15T06:37:38;84.83;;;34.00;;
2558;SDS011;1289;53.488;10.006;2023-02-15T06:40:06;74.90;;;31.90;;
2558;SDS011;1289;53.488;10.006;2023-02-15T06:42:33;142.47;;;38.30;;
2558;SDS011;1289;53.488;10.006;2023-02-15T06:45:00;129.17;;;35.67;;
2558;SDS011;1289;53.488;10.006;2023-02-15T06:47:26;127.53;;;36.60;;
2558;SDS011;1289;53.488;10.006;2023-02-15T06:49:53;71.33;;;30.93;;
2558;SDS011;1289;53.488;10.006;2023-02-15T06:52:19;94.63;;;31.93;;
2558;SDS011;1289;53.488;10.006;2023-02-15T06:54:48;95.27;;;35.77;;
2558;SDS011;1289;53.488;10.006;2023-02-15T06:57:14;59.93;;;30.07;;
2558;SDS011;1289;53.488;10.006;2023-02-15T06:59:41;88.80;;;35.53;;
2558;SDS011;1289;53.488;10.006;2023-02-15T07:02:08;118.87;;;36.20;;
2558;SDS011;1289;53.488;10.006;2023-02-15T07:04:34;86.73;;;33.17;;
2558;SDS011;1289;53.488;10.006;2023-02-15T07:07:01;163.73;;;39.40;;
2558;SDS011;1289;53.488;10.006;2023-02-15T07:09:27;129.33;;;34.70;;
2558;SDS011;1289;53.488;10.006;2023-02-15T07:11:55;116.10;;;34.03;;
2558;SDS011;1289;53.488;10.006;2023-02-15T07:14:39;91.20;;;33.27;;
2558;SDS011;1289;53.488;10.006;2023-02-15T07:17:06;136.70;;;38.00;;
2558;SDS011;1289;53.488;10.006;2023-02-15T07:19:33;60.27;;;29.33;;
2558;SDS011;1289;53.488;10.006;2023-02-15T07:21:59;154.63;;;40.40;;
2558;SDS011;1289;53.488;10.006;2023-02-15T07:24:26;79.10;;;34.03;;
2558;SDS011;1289;53.488;10.006;2023-02-15T07:26:52;68.70;;;31.37;;
2558;SDS011;1289;53.488;10.006;2023-02-15T07:29:20;80.00;;;32.53;;
2558;SDS011;1289;53.488;10.006;2023-02-15T07:31:48;114.37;;;36.77;;
2558;SDS011;1289;53.488;10.006;2023-02-15T07:34:15;203.57;;;36.67;;
2558;SDS011;1289;53.488;10.006;2023-02-15T07:36:41;119.10;;;35.23;;
2558;SDS011;1289;53.488;10.006;2023-02-15T07:39:09;79.67;;;34.10;;
2558;SDS011;1289;53.488;10.006;2023-02-15T07:41:35;83.77;;;32.07;;
2558;SDS011;1289;53.488;10.006;2023-02-15T07:44:10;107.60;;;35.60;;
2558;SDS011;1289;53.488;10.006;2023-02-15T07:46:39;212.13;;;38.23;;
2558;SDS011;1289;53.488;10.006;2023-02-15T07:49:05;161.80;;;42.23;;
2558;SDS011;1289;53.488;10.006;2023-02-15T07:51:32;84.97;;;33.03;;
2558;SDS011;1289;53.488;10.006;2023-02-15T07:53:58;92.77;;;34.70;;
2558;SDS011;1289;53.488;10.006;2023-02-15T07:56:25;95.53;;;34.00;;
2558;SDS011;1289;53.488;10.006;2023-02-15T07:58:52;113.77;;;34.33;;
2558;SDS011;1289;53.488;10.006;2023-02-15T08:01:21;61.70;;;30.40;;
2558;SDS011;1289;53.488;10.006;2023-02-15T08:03:50;81.50;;;34.27;;
2558;SDS011;1289;53.488;10.006;2023-02-15T08:06:18;60.63;;;32.97;;
2558;SDS011;1289;53.488;10.006;2023-02-15T08:08:45;115.03;;;35.53;;
2558;SDS011;1289;53.488;10.006;2023-02-15T08:11:16;82.07;;;34.27;;
2558;SDS011;1289;53.488;10.006;2023-02-15T08:13:59;72.13;;;30.57;;
2558;SDS011;1289;53.488;10.006;2023-02-15T08:16:28;91.53;;;34.80;;
2558;SDS011;1289;53.488;10.006;2023-02-15T08:18:58;81.10;;;29.97;;
2558;SDS011;1289;53.488;10.006;2023-02-15T08:21:26;84.43;;;32.77;;
2558;SDS011;1289;53.488;10.006;2023-02-15T08:23:57;73.87;;;32.73;;
2558;SDS011;1289;53.488;10.006;2023-02-15T08:26:24;84.83;;;31.57;;
2558;SDS011;1289;53.488;10.006;2023-02-15T08:28:52;87.97;;;33.77;;
2558;SDS011;1289;53.488;10.006;2023-02-15T08:31:18;144.60;;;34.13;;
2558;SDS011;1289;53.488;10.006;2023-02-15T08:33:46;68.87;;;28.17;;
2558;SDS011;1289;53.488;10.006;2023-02-15T08:36:16;93.87;;;31.33;;
2558;SDS011;1289;53.488;10.006;2023-02-15T08:38:44;86.93;;;29.77;;
2558;SDS011;1289;53.488;10.006;2023-02-15T08:41:13;72.70;;;30.53;;
2558;SDS011;1289;53.488;10.006;2023-02-15T08:43:40;61.10;;;28.97;;
2558;SDS011;1289;53.488;10.006;2023-02-15T08:46:08;70.70;;;30.00;;
2558;SDS011;1289;53.488;10.006;2023-02-15T08:48:35;76.83;;;30.73;;
2558;SDS011;1289;53.488;10.006;2023-02-15T08:51:06;70.67;;;31.83;;
2558;SDS011;1289;53.488;10.006;2023-02-15T08:53:37;78.07;;;32.97;;
2558;SDS011;1289;53.488;10.006;2023-02-15T08:56:04;67.23;;;31.80;;
2558;SDS011;1289;53.488;10.006;2023-02-15T08:58:31;66.73;;;32.27;;
2558;SDS011;1289;53.488;10.006;2023-02-15T09:00:58;123.77;;;36.13;;
2558;SDS011;1289;53.488;10.006;2023-02-15T09:03:24;95.13;;;32.00;;
2558;SDS011;1289;53.488;10.006;2023-02-15T09:05:56;57.20;;;29.87;;
2558;SDS011;1289;53.488;10.006;2023-02-15T09:08:23;79.97;;;31.20;;
2558;SDS011;1289;53.488;10.006;2023-02-15T09:10:51;106.43;;;30.77;;
2558;SDS011;1289;53.488;10.006;2023-02-15T09:13:18;81.57;;;31.00;;
2558;SDS011;1289;53.488;10.006;2023-02-15T09:15:45;78.50;;;32.90;;
2558;SDS011;1289;53.488;10.006;2023-02-15T09:18:11;59.33;;;32.57;;
2558;SDS011;1289;53.488;10.006;2023-02-15T09:20:42;90.70;;;32.40;;
2558;SDS011;1289;53.488;10.006;2023-02-15T09:23:09;85.37;;;29.50;;
2558;SDS011;1289;53.488;10.006;2023-02-15T09:25:35;66.10;;;30.83;;
2558;SDS011;1289;53.488;10.006;2023-02-15T09:28:03;91.07;;;32.47;;
2558;SDS011;1289;53.488;10.006;2023-02-15T09:30:30;55.80;;;29.00;;
2558;SDS011;1289;53.488;10.006;2023-02-15T09:32:57;53.00;;;29.80;;
2558;SDS011;1289;53.488;10.006;2023-02-15T09:35:24;54.93;;;29.87;;
2558;SDS011;1289;53.488;10.006;2023-02-15T09:37:50;64.83;;;30.97;;
2558;SDS011;1289;53.488;10.006;2023-02-15T09:40:17;54.73;;;29.90;;
2558;SDS011;1289;53.488;10.006;2023-02-15T09:45:46;58.70;;;28.50;;
2558;SDS011;1289;53.488;10.006;2023-02-15T09:48:36;63.57;;;30.00;;
2558;SDS011;1289;53.488;10.006;2023-02-15T09:51:09;88.77;;;31.03;;
2558;SDS011;1289;53.488;10.006;2023-02-15T09:53:51;72.77;;;29.87;;
2558;SDS011;1289;53.488;10.006;2023-02-15T09:56:25;55.20;;;31.60;;
2558;SDS011;1289;53.488;10.006;2023-02-15T09:58:59;54.37;;;29.87;;
2558;SDS011;1289;53.488;10.006;2023-02-15T10:01:34;57.20;;;31.43;;
2558;SDS011;1289;53.488;10.006;2023-02-15T10:04:09;60.53;;;29.77;;
2558;SDS011;1289;53.488;10.006;2023-02-15T10:06:46;50.53;;;30.20;;
2558;SDS011;1289;53.488;10.006;2023-02-15T10:09:43;57.00;;;30.23;;
2558;SDS011;1289;53.488;10.006;2023-02-15T10:12:19;53.07;;;33.07;;
2558;SDS011;1289;53.488;10.006;2023-02-15T10:15:05;59.37;;;31.33;;
2558;SDS011;1289;53.488;10.006;2023-02-15T10:17:43;71.93;;;34.70;;
2558;SDS011;1289;53.488;10.006;2023-02-15T10:20:28;59.30;;;31.13;;
2558;SDS011;1289;53.488;10.006;2023-02-15T10:23:08;55.23;;;30.40;;
2558;SDS011;1289;53.488;10.006;2023-02-15T10:25:41;47.83;;;31.30;;
2558;SDS011;1289;53.488;10.006;2023-02-15T10:28:09;50.57;;;31.47;;
2558;SDS011;1289;53.488;10.006;2023-02-15T10:30:45;50.57;;;32.70;;
2558;SDS011;1289;53.488;10.006;2023-02-15T10:33:15;54.27;;;31.73;;
2558;SDS011;1289;53.488;10.006;2023-02-15T10:35:48;52.70;;;30.53;;
2558;SDS011;1289;53.488;10.006;2023-02-15T10:38:20;53.20;;;32.77;;
2558;SDS011;1289;53.488;10.006;2023-02-15T10:40:53;54.90;;;31.07;;
2558;SDS011;1289;53.488;10.006;2023-02-15T10:43:41;56.67;;;31.97;;
2558;SDS011;1289;53.488;10.006;2023-02-15T10:46:19;47.30;;;30.03;;
2558;SDS011;1289;53.488;10.006;2023-02-15T10:49:02;51.17;;;32.10;;
2558;SDS011;1289;53.488;10.006;2023-02-15T10:51:42;52.23;;;32.37;;
2558;SDS011;1289;53.488;10.006;2023-02-15T10:54:19;52.07;;;31.70;;
2558;SDS011;1289;53.488;10.006;2023-02-15T10:56:50;50.10;;;30.67;;
2558;SDS011;1289;53.488;10.006;2023-02-15T11:02:30;50.53;;;30.90;;
2558;SDS011;1289;53.488;10.006;2023-02-15T11:05:14;44.37;;;27.97;;
2558;SDS011;1289;53.488;10.006;2023-02-15T11:07:47;45.77;;;29.90;;
2558;SDS011;1289;53.488;10.006;2023-02-15T11:10:19;46.73;;;30.67;;
2558;SDS011;1289;53.488;10.006;2023-02-15T11:12:51;48.73;;;31.13;;
2558;SDS011;1289;53.488;10.006;2023-02-15T11:15:19;44.53;;;28.13;;
2558;SDS011;1289;53.488;10.006;2023-02-15T11:17:53;42.73;;;27.70;;
2558;SDS011;1289;53.488;10.006;2023-02-15T11:20:23;39.50;;;27.37;;
2558;SDS011;1289;53.488;10.006;2023-02-15T11:22:51;39.80;;;27.70;;
2558;SDS011;1289;53.488;10.006;2023-02-15T11:25:20;37.57;;;26.67;;
2558;SDS011;1289;53.488;10.006;2023-02-15T11:27:50;39.20;;;27.40;;
2558;SDS011;1289;53.488;10.006;2023-02-15T11:30:19;35.00;;;25.73;;
2558;SDS011;1289;53.488;10.006;2023-02-15T11:32:47;39.70;;;28.07;;
2558;SDS011;1289;53.488;10.006;2023-02-15T11:35:19;32.20;;;24.00;;
2558;SDS011;1289;53.488;10.006;2023-02-15T11:37:51;32.70;;;25.13;;
2558;SDS011;1289;53.488;10.006;2023-02-15T11:40:22;35.80;;;25.03;;
2558;SDS011;1289;53.488;10.006;2023-02-15T11:42:52;30.37;;;21.80;;
2558;SDS011;1289;53.488;10.006;2023-02-15T11:45:24;30.60;;;22.30;;
2558;SDS011;1289;53.488;10.006;2023-02-15T11:47:53;28.30;;;20.47;;
2558;SDS011;1289;53.488;10.006;2023-02-15T11:50:21;27.50;;;20.67;;
2558;SDS011;1289;53.488;10.006;2023-02-15T11:52:49;26.70;;;20.93;;
2558;SDS011;1289;53.488;10.006;2023-02-15T11:55:19;24.80;;;20.10;;
2558;SDS011;1289;53.488;10.006;2023-02-15T11:57:48;24.00;;;19.77;;
2558;SDS011;1289;53.488;10.006;2023-02-15T12:00:20;25.33;;;19.97;;
2558;SDS011;1289;53.488;10.006;2023-02-15T12:02:52;26.50;;;20.73;;
2558;SDS011;1289;53.488;10.006;2023-02-15T12:05:21;23.60;;;19.47;;
2558;SDS011;1289;53.488;10.006;2023-02-15T12:07:52;21.83;;;18.33;;
2558;SDS011;1289;53.488;10.006;2023-02-15T12:10:20;21.30;;;17.83;;
2558;SDS011;1289;53.488;10.006;2023-02-15T12:12:51;20.70;;;16.40;;
2558;SDS011;1289;53.488;10.006;2023-02-15T12:15:35;18.87;;;16.50;;
2558;SDS011;1289;53.488;10.006;2023-02-15T12:18:02;19.50;;;16.30;;
2558;SDS011;1289;53.488;10.006;2023-02-15T12:20:31;19.93;;;16.27;;
2558;SDS011;1289;53.488;10.006;2023-02-15T12:22:59;19.77;;;15.90;;
2558;SDS011;1289;53.488;10.006;2023-02-15T12:25:29;20.63;;;16.57;;
2558;SDS011;1289;53.488;10.006;2023-02-15T12:27:59;22.90;;;16.70;;
2558;SDS011;1289;53.488;10.006;2023-02-15T12:30:28;19.27;;;17.27;;
2558;SDS011;1289;53.488;10.006;2023-02-15T12:33:13;20.10;;;17.07;;
2558;SDS011;1289;53.488;10.006;2023-02-15T12:35:43;19.77;;;16.47;;
2558;SDS011;1289;53.488;10.006;2023-02-15T12:38:20;20.80;;;17.20;;
2558;SDS011;1289;53.488;10.006;2023-02-15T12:40:56;19.03;;;17.00;;
2558;SDS011;1289;53.488;10.006;2023-02-15T12:43:24;21.53;;;17.60;;
2558;SDS011;1289;53.488;10.006;2023-02-15T12:45:52;21.50;;;17.27;;
2558;SDS011;1289;53.488;10.006;2023-02-15T12:48:21;20.13;;;16.60;;
2558;SDS011;1289;53.488;10.006;2023-02-15T12:50:49;20.20;;;17.00;;
2558;SDS011;1289;53.488;10.006;2023-02-15T12:53:17;18.73;;;16.60;;
2558;SDS011;1289;53.488;10.006;2023-02-15T12:55:52;22.20;;;18.03;;
2558;SDS011;1289;53.488;10.006;2023-02-15T12:58:21;21.60;;;18.07;;
2558;SDS011;1289;53.488;10.006;2023-02-15T13:01:01;21.50;;;18.60;;
2558;SDS011;1289;53.488;10.006;2023-02-15T13:03:38;23.67;;;19.53;;
2558;SDS011;1289;53.488;10.006;2023-02-15T13:06:07;23.47;;;18.17;;
2558;SDS011;1289;53.488;10.006;2023-02-15T13:08:35;22.70;;;17.43;;
2558;SDS011;1289;53.488;10.006;2023-02-15T13:11:06;21.80;;;18.10;;
2558;SDS011;1289;53.488;10.006;2023-02-15T13:13:50;19.50;;;17.33;;
2558;SDS011;1289;53.488;10.006;2023-02-15T13:16:19;23.93;;;19.20;;
2558;SDS011;1289;53.488;10.006;2023-02-15T13:18:47;21.73;;;19.40;;
2558;SDS011;1289;53.488;10.006;2023-02-15T13:21:19;21.67;;;18.23;;
2558;SDS011;1289;53.488;10.006;2023-02-15T13:23:48;21.87;;;18.63;;
2558;SDS011;1289;53.488;10.006;2023-02-15T13:26:18;22.67;;;18.70;;
2558;SDS011;1289;53.488;10.006;2023-02-15T13:28:47;23.00;;;19.00;;
2558;SDS011;1289;53.488;10.006;2023-02-15T13:31:15;25.77;;;19.30;;
2558;SDS011;1289;53.488;10.006;2023-02-15T13:33:45;22.60;;;17.50;;
2558;SDS011;1289;53.488;10.006;2023-02-15T13:36:14;22.20;;;17.97;;
2558;SDS011;1289;53.488;10.006;2023-02-15T13:38:49;21.40;;;19.10;;
2558;SDS011;1289;53.488;10.006;2023-02-15T13:41:23;22.30;;;19.07;;
2558;SDS011;1289;53.488;10.006;2023-02-15T13:43:55;19.77;;;16.67;;
2558;SDS011;1289;53.488;10.006;2023-02-15T13:46:31;20.00;;;17.97;;
2558;SDS011;1289;53.488;10.006;2023-02-15T13:49:09;20.20;;;18.10;;
2558;SDS011;1289;53.488;10.006;2023-02-15T13:51:42;20.70;;;18.50;;
2558;SDS011;1289;53.488;10.006;2023-02-15T13:54:17;22.43;;;19.37;;
2558;SDS011;1289;53.488;10.006;2023-02-15T13:56:56;21.27;;;18.97;;
2558;SDS011;1289;53.488;10.006;2023-02-15T14:02:30;21.90;;;18.30;;
2558;SDS011;1289;53.488;10.006;2023-02-15T14:05:21;20.83;;;17.27;;
2558;SDS011;1289;53.488;10.006;2023-02-15T14:08:01;24.87;;;19.97;;
2558;SDS011;1289;53.488;10.006;2023-02-15T14:10:37;24.73;;;18.87;;
2558;SDS011;1289;53.488;10.006;2023-02-15T14:13:26;24.73;;;19.80;;
2558;SDS011;1289;53.488;10.006;2023-02-15T14:16:03;22.90;;;18.80;;
2558;SDS011;1289;53.488;10.006;2023-02-15T14:18:35;22.27;;;19.63;;
2558;SDS011;1289;53.488;10.006;2023-02-15T14:21:06;21.23;;;17.90;;
2558;SDS011;1289;53.488;10.006;2023-02-15T14:23:52;22.07;;;18.30;;
2558;SDS011;1289;53.488;10.006;2023-02-15T14:26:25;22.20;;;18.50;;
2558;SDS011;1289;53.488;10.006;2023-02-15T14:28:59;20.90;;;17.67;;
2558;SDS011;1289;53.488;10.006;2023-02-15T14:31:34;22.90;;;19.40;;
2558;SDS011;1289;53.488;10.006;2023-02-15T14:34:03;22.37;;;18.83;;
2558;SDS011;1289;53.488;10.006;2023-02-15T14:36:31;21.83;;;17.80;;
2558;SDS011;1289;53.488;10.006;2023-02-15T14:39:06;21.80;;;18.10;;
2558;SDS011;1289;53.488;10.006;2023-02-15T14:42:01;23.37;;;20.10;;
2558;SDS011;1289;53.488;10.006;2023-02-15T14:44:31;25.50;;;19.07;;
2558;SDS011;1289;53.488;10.006;2023-02-15T14:47:04;21.73;;;19.27;;
2558;SDS011;1289;53.488;10.006;2023-02-15T14:49:33;23.23;;;19.10;;
2558;SDS011;1289;53.488;10.006;2023-02-15T14:52:03;22.67;;;17.90;;
2558;SDS011;1289;53.488;10.006;2023-02-15T14:57:33;23.53;;;19.10;;
2558;SDS011;1289;53.488;10.006;2023-02-15T15:00:01;23.70;;;19.67;;
2558;SDS011;1289;53.488;10.006;2023-02-15T15:02:44;22.97;;;18.83;;
2558;SDS011;1289;53.488;10.006;2023-02-15T15:05:15;25.50;;;19.80;;
2558;SDS011;1289;53.488;10.006;2023-02-15T15:07:45;22.90;;;19.73;;
2558;SDS011;1289;53.488;10.006;2023-02-15T15:10:34;22.10;;;19.00;;
2558;SDS011;1289;53.488;10.006;2023-02-15T15:18:56;23.97;;;18.67;;
2558;SDS011;1289;53.488;10.006;2023-02-15T15:27:43;25.67;;;21.00;;